createdAt,value
2018-08-11T00:01:22.159Z,100754.52
2018-08-11T00:03:50.338Z,100746.55
2018-08-11T00:06:18.606Z,100745.54
2018-08-11T00:08:46.849Z,100747.77
2018-08-11T00:11:15.287Z,100749.75
2018-08-11T00:13:43.375Z,100745.16
2018-08-11T00:16:11.556Z,100734.97
2018-08-11T00:18:39.679Z,100738.17
2018-08-11T00:21:07.777Z,100732.59
2018-08-11T00:23:35.858Z,100729.78
2018-08-11T00:26:03.997Z,100736.37
2018-08-11T00:28:32.075Z,100735.96
2018-08-11T00:31:00.189Z,100734.55
2018-08-11T00:33:28.234Z,100726.97
2018-08-11T00:35:56.347Z,100729.16
2018-08-11T00:38:24.419Z,100724.17
2018-08-11T00:40:52.565Z,100721.17
2018-08-11T00:43:20.728Z,100717.77
2018-08-11T00:45:48.993Z,100726.15
2018-08-11T00:48:17.065Z,100715.97
2018-08-11T00:50:45.175Z,100713.41
2018-08-11T00:53:13.253Z,100716.77
2018-08-11T00:55:41.375Z,100719.31
2018-08-11T00:58:09.442Z,100717.12
2018-08-11T01:00:37.744Z,100720.48
2018-08-11T01:03:06.092Z,100716.10
2018-08-11T01:05:34.257Z,100720.86
2018-08-11T01:08:02.346Z,100710.89
2018-08-11T01:10:30.411Z,100710.07
2018-08-11T01:12:58.495Z,100713.25
2018-08-11T01:15:26.566Z,100713.23
2018-08-11T01:17:54.678Z,100718.58
2018-08-11T01:20:22.814Z,100715.17
2018-08-11T01:22:51.058Z,100716.57
2018-08-11T01:25:19.123Z,100714.18
2018-08-11T01:27:47.238Z,100709.00
2018-08-11T01:30:18.756Z,100710.40
2018-08-11T01:32:46.843Z,100702.44
2018-08-11T01:35:14.919Z,100704.44
2018-08-11T01:37:43.923Z,100704.65
2018-08-11T01:40:13.272Z,100703.86
2018-08-11T01:42:42.464Z,100710.21
2018-08-11T01:45:11.504Z,100714.56
2018-08-11T01:47:40.107Z,100708.19
2018-08-11T01:50:09.507Z,100711.97
2018-08-11T01:52:37.933Z,100710.55
2018-08-11T01:55:06.040Z,100707.77
2018-08-11T01:57:34.147Z,100710.73
2018-08-11T02:00:02.232Z,100706.77
2018-08-11T02:02:30.383Z,100703.59
2018-08-11T02:04:58.415Z,100716.97
2018-08-11T02:07:26.479Z,100714.18
2018-08-11T02:09:54.577Z,100723.73
2018-08-11T02:12:22.618Z,100724.72
2018-08-11T02:14:50.702Z,100725.50
2018-08-11T02:17:18.763Z,100722.92
2018-08-11T02:19:46.931Z,100725.90
2018-08-11T02:22:14.988Z,100724.32
2018-08-11T02:24:43.058Z,100729.90
2018-08-11T02:27:11.263Z,100736.28
2018-08-11T02:29:39.434Z,100736.25
2018-08-11T02:32:07.512Z,100744.80
2018-08-11T02:34:35.608Z,100758.55
2018-08-11T02:37:03.707Z,100760.34
2018-08-11T02:39:31.797Z,100765.92
2018-08-11T02:41:59.852Z,100773.89
2018-08-11T02:44:28.227Z,100797.18
2018-08-11T02:46:56.327Z,100801.87
2018-08-11T02:49:24.455Z,100798.77
2018-08-11T02:51:53.091Z,100811.13
2018-08-11T02:54:21.212Z,100777.23
2018-08-11T02:56:49.418Z,100776.37
2018-08-11T02:59:22.056Z,100788.84
2018-08-11T03:01:50.240Z,100786.58
2018-08-11T03:04:18.387Z,100776.86
2018-08-11T03:06:46.712Z,100781.13
2018-08-11T03:09:14.796Z,100790.98
2018-08-11T03:11:42.934Z,100790.65
2018-08-11T03:14:11.145Z,100797.94
2018-08-11T03:16:39.111Z,100800.47
2018-08-11T03:19:07.491Z,100807.66
2018-08-11T03:21:35.561Z,100811.51
2018-08-11T03:24:03.728Z,100800.73
2018-08-11T03:26:31.835Z,100808.52
2018-08-11T03:28:59.916Z,100812.79
2018-08-11T03:31:28.007Z,100776.20
2018-08-11T03:33:56.108Z,100780.05
2018-08-11T03:36:24.260Z,100765.94
2018-08-11T03:38:52.513Z,100772.98
2018-08-11T03:41:20.674Z,100786.37
2018-08-11T03:43:48.831Z,100803.34
2018-08-11T03:46:16.898Z,100801.31
2018-08-11T03:48:45.228Z,100794.08
2018-08-11T03:51:13.288Z,100800.52
2018-08-11T03:53:41.361Z,100803.99
2018-08-11T03:56:09.454Z,100801.30
2018-08-11T03:58:37.518Z,100805.31
2018-08-11T04:01:05.627Z,100810.44
2018-08-11T04:03:33.775Z,100814.53
2018-08-11T04:06:01.854Z,100827.67
2018-08-11T04:08:29.927Z,100834.52
2018-08-11T04:10:58.072Z,100829.94
2018-08-11T04:13:26.179Z,100837.75
2018-08-11T04:15:54.263Z,100847.03
2018-08-11T04:18:22.326Z,100841.26
2018-08-11T04:20:50.423Z,100847.10
2018-08-11T04:23:18.492Z,100843.52
2018-08-11T04:25:46.600Z,100852.70
2018-08-11T04:28:15.007Z,100858.86
2018-08-11T04:30:43.063Z,100851.69
2018-08-11T04:33:11.138Z,100865.98
2018-08-11T04:35:39.255Z,100871.33
2018-08-11T04:38:07.469Z,100866.22
2018-08-11T04:40:35.519Z,100870.80
2018-08-11T04:43:03.595Z,100873.66
2018-08-11T04:45:31.920Z,100879.36
2018-08-11T04:47:59.975Z,100877.98
2018-08-11T04:50:28.052Z,100880.60
2018-08-11T04:52:56.108Z,100878.75
2018-08-11T04:55:24.194Z,100879.13
2018-08-11T04:57:52.340Z,100889.84
2018-08-11T05:00:20.443Z,100893.81
2018-08-11T05:02:48.670Z,100898.40
2018-08-11T05:05:17.049Z,100898.55
2018-08-11T05:07:45.135Z,100897.95
2018-08-11T05:10:13.175Z,100897.61
2018-08-11T05:12:41.248Z,100906.43
2018-08-11T05:15:09.447Z,100893.38
2018-08-11T05:17:37.511Z,100896.38
2018-08-11T05:20:05.579Z,100901.32
2018-08-11T05:22:33.640Z,100900.17
2018-08-11T05:25:01.709Z,100899.75
2018-08-11T05:27:29.757Z,100891.68
2018-08-11T05:29:57.831Z,100890.45
2018-08-11T05:32:26.239Z,100890.60
2018-08-11T05:34:55.040Z,100899.04
2018-08-11T05:37:23.098Z,100891.84
2018-08-11T05:39:51.438Z,100891.99
2018-08-11T05:42:19.479Z,100896.84
2018-08-11T05:44:47.540Z,100900.66
2018-08-11T05:47:15.604Z,100910.66
2018-08-11T05:49:43.639Z,100914.23
2018-08-11T05:52:11.699Z,100913.09
2018-08-11T05:54:39.792Z,100915.53
2018-08-11T05:57:07.847Z,100918.42
2018-08-11T05:59:35.896Z,100924.67
2018-08-11T06:02:04.009Z,100927.70
2018-08-11T06:04:32.105Z,100931.87
2018-08-11T06:07:00.158Z,100929.16
2018-08-11T06:09:28.220Z,100925.69
2018-08-11T06:11:56.275Z,100925.86
2018-08-11T06:14:24.354Z,100927.25
2018-08-11T06:16:52.415Z,100929.80
2018-08-11T06:19:20.490Z,100933.28
2018-08-11T06:21:48.615Z,100934.22
2018-08-11T06:24:16.675Z,100938.84
2018-08-11T06:26:44.734Z,100940.94
2018-08-11T06:29:12.807Z,100939.66
2018-08-11T06:31:40.885Z,100940.92
2018-08-11T06:34:08.961Z,100942.36
2018-08-11T06:36:37.023Z,100941.47
2018-08-11T06:39:09.213Z,100939.01
2018-08-11T06:41:37.351Z,100938.37
2018-08-11T06:44:05.455Z,100942.82
2018-08-11T06:46:33.557Z,100941.30
2018-08-11T06:49:01.644Z,100941.38
2018-08-11T06:51:29.756Z,100954.94
2018-08-11T06:53:57.860Z,100951.69
2018-08-11T06:56:26.250Z,100952.35
2018-08-11T06:58:54.310Z,100958.43
2018-08-11T07:01:22.355Z,100957.89
2018-08-11T07:03:50.637Z,100962.01
2018-08-11T07:06:18.699Z,100967.45
2018-08-11T07:08:46.774Z,100966.05
2018-08-11T07:11:14.884Z,100960.56
2018-08-11T07:13:42.932Z,100965.08
2018-08-11T07:16:10.990Z,100956.73
2018-08-11T07:18:39.085Z,100968.87
2018-08-11T07:21:07.243Z,100968.98
2018-08-11T07:23:35.343Z,100976.03
2018-08-11T07:26:03.403Z,100981.25
2018-08-11T07:28:31.448Z,100976.23
2018-08-11T07:30:59.515Z,100983.02
2018-08-11T07:33:27.568Z,100984.64
2018-08-11T07:35:55.952Z,100985.49
2018-08-11T07:38:23.970Z,100983.87
2018-08-11T07:40:52.072Z,100988.64
2018-08-11T07:43:20.427Z,100991.62
2018-08-11T07:45:48.595Z,100981.92
2018-08-11T07:48:21.280Z,100983.56
2018-08-11T07:50:49.316Z,100986.93
2018-08-11T07:53:17.455Z,100973.05
2018-08-11T07:55:45.590Z,100979.51
2018-08-11T07:58:13.659Z,100978.14
2018-08-11T08:00:41.723Z,100966.35
2018-08-11T08:03:09.756Z,100969.28
2018-08-11T08:05:38.109Z,100969.55
2018-08-11T08:08:06.207Z,100975.18
2018-08-11T08:10:34.788Z,100980.91
2018-08-11T08:13:02.880Z,100979.22
2018-08-11T08:15:30.943Z,100986.06
2018-08-11T08:17:59.292Z,100981.92
2018-08-11T08:20:29.824Z,100986.87
2018-08-11T08:22:59.909Z,100988.72
2018-08-11T08:25:29.357Z,100993.02
2018-08-11T08:27:59.158Z,101000.17
2018-08-11T08:30:29.246Z,100993.47
2018-08-11T08:32:58.550Z,100998.80
2018-08-11T08:35:27.887Z,100998.68
2018-08-11T08:37:58.706Z,100996.64
2018-08-11T08:40:27.397Z,100998.08
2018-08-11T08:42:56.366Z,100990.89
2018-08-11T08:45:25.067Z,101001.33
2018-08-11T08:47:53.948Z,100989.17
2018-08-11T08:50:22.692Z,100999.36
2018-08-11T08:52:52.721Z,100997.16
2018-08-11T08:55:21.532Z,100961.84
2018-08-11T08:57:50.374Z,100994.59
2018-08-11T09:00:19.861Z,100999.33
2018-08-11T09:02:49.025Z,100996.03
2018-08-11T09:05:17.162Z,100993.50
2018-08-11T09:07:45.422Z,101001.25
2018-08-11T09:10:13.491Z,101001.91
2018-08-11T09:12:41.537Z,100994.74
2018-08-11T09:15:09.604Z,100998.89
2018-08-11T09:17:37.637Z,100991.53
2018-08-11T09:20:06.152Z,100993.14
2018-08-11T09:22:34.239Z,100999.92
2018-08-11T09:25:02.293Z,100989.93
2018-08-11T09:27:30.385Z,100978.80
2018-08-11T09:29:58.426Z,100986.06
2018-08-11T09:32:26.482Z,100985.45
2018-08-11T09:34:55.642Z,100984.19
2018-08-11T09:37:23.745Z,100985.06
2018-08-11T09:39:51.809Z,100998.38
2018-08-11T09:42:19.920Z,100988.92
2018-08-11T09:44:48.054Z,100995.84
2018-08-11T09:47:16.150Z,100995.42
2018-08-11T09:49:44.306Z,100993.47
2018-08-11T09:52:12.413Z,100997.45
2018-08-11T09:54:40.675Z,101001.30
2018-08-11T09:57:08.759Z,101002.62
2018-08-11T09:59:36.823Z,101003.17
2018-08-11T10:02:21.185Z,100996.45
2018-08-11T10:04:49.275Z,100991.52
2018-08-11T10:07:17.400Z,100995.06
2018-08-11T10:09:46.805Z,100987.58
2018-08-11T10:12:15.505Z,100989.98
2018-08-11T10:14:43.608Z,100994.11
2018-08-11T10:17:11.670Z,100989.08
2018-08-11T10:19:39.816Z,100996.58
2018-08-11T10:22:07.895Z,100997.00
2018-08-11T10:24:36.104Z,100989.98
2018-08-11T10:27:04.156Z,100999.70
2018-08-11T10:29:32.300Z,100987.75
2018-08-11T10:32:00.423Z,100992.78
2018-08-11T10:34:28.485Z,100996.70
2018-08-11T10:36:56.627Z,100988.38
2018-08-11T10:39:24.731Z,100995.79
2018-08-11T10:41:52.772Z,100996.28
2018-08-11T10:44:20.860Z,100985.22
2018-08-11T10:46:48.930Z,100985.63
2018-08-11T10:49:16.987Z,100991.53
2018-08-11T10:51:45.108Z,100987.80
2018-08-11T10:54:13.172Z,100985.12
2018-08-11T10:56:41.426Z,100996.66
2018-08-11T10:59:09.620Z,100991.30
2018-08-11T11:01:37.683Z,100985.91
2018-08-11T11:04:05.752Z,100989.37
2018-08-11T11:06:33.880Z,100984.22
2018-08-11T11:09:02.049Z,100986.45
2018-08-11T11:11:30.535Z,100982.41
2018-08-11T11:13:59.149Z,100988.72
2018-08-11T11:16:27.265Z,100974.50
2018-08-11T11:18:55.440Z,100981.58
2018-08-11T11:21:23.731Z,100983.55
2018-08-11T11:23:51.932Z,100980.30
2018-08-11T11:26:20.096Z,100970.34
2018-08-11T11:28:48.188Z,100971.88
2018-08-11T11:31:16.240Z,100961.61
2018-08-11T11:33:44.360Z,100980.34
2018-08-11T11:36:12.429Z,100968.02
2018-08-11T11:38:40.627Z,100976.41
2018-08-11T11:41:08.735Z,100975.08
2018-08-11T11:43:36.845Z,100977.55
2018-08-11T11:46:04.953Z,100971.00
2018-08-11T11:48:33.112Z,100971.07
2018-08-11T11:51:01.180Z,100967.45
2018-08-11T11:53:29.304Z,100969.77
2018-08-11T11:55:57.528Z,100958.73
2018-08-11T11:58:26.493Z,100969.33
2018-08-11T12:00:54.571Z,100978.66
2018-08-11T12:03:22.784Z,100975.31
2018-08-11T12:05:50.936Z,100978.90
2018-08-11T12:08:19.084Z,100972.51
2018-08-11T12:10:47.152Z,100963.45
2018-08-11T12:13:15.851Z,100971.06
2018-08-11T12:15:43.902Z,100970.80
2018-08-11T12:18:11.964Z,100973.64
2018-08-11T12:20:40.182Z,100966.86
2018-08-11T12:23:08.267Z,100976.66
2018-08-11T12:25:36.690Z,100979.48
2018-08-11T12:28:04.756Z,100980.16
2018-08-11T12:30:32.833Z,100977.88
2018-08-11T12:33:00.928Z,100958.28
2018-08-11T12:35:28.984Z,100963.02
2018-08-11T12:37:57.129Z,100965.20
2018-08-11T12:40:25.216Z,100964.56
2018-08-11T12:42:53.369Z,100970.17
2018-08-11T12:45:21.553Z,100972.30
2018-08-11T12:47:49.687Z,100969.05
2018-08-11T12:50:17.885Z,100987.80
2018-08-11T12:52:46.024Z,100981.02
2018-08-11T12:55:14.084Z,100985.02
2018-08-11T12:57:42.182Z,100975.18
2018-08-11T13:00:10.772Z,100972.81
2018-08-11T13:02:39.152Z,100988.70
2018-08-11T13:05:07.313Z,100983.14
2018-08-11T13:07:35.427Z,100987.71
2018-08-11T13:10:03.555Z,100986.91
2018-08-11T13:12:31.929Z,100980.48
2018-08-11T13:15:00.308Z,100979.06
2018-08-11T13:17:28.378Z,100983.06
2018-08-11T13:19:56.500Z,100968.21
2018-08-11T13:22:24.619Z,100970.92
2018-08-11T13:24:52.724Z,100974.39
2018-08-11T13:27:20.809Z,100964.80
2018-08-11T13:29:48.852Z,100976.70
2018-08-11T13:32:17.307Z,100978.36
2018-08-11T13:34:45.355Z,100969.69
2018-08-11T13:37:13.439Z,100961.66
2018-08-11T13:39:46.754Z,100964.89
2018-08-11T13:42:14.831Z,100961.55
2018-08-11T13:44:42.887Z,100961.76
2018-08-11T13:47:10.975Z,100956.81
2018-08-11T13:49:39.059Z,100956.45
2018-08-11T13:52:07.151Z,100963.38
2018-08-11T13:54:35.266Z,100963.04
2018-08-11T13:57:03.414Z,100957.58
2018-08-11T13:59:31.485Z,100965.30
2018-08-11T14:01:59.535Z,100960.48
2018-08-11T14:04:27.607Z,100973.13
2018-08-11T14:06:55.734Z,100960.11
2018-08-11T14:09:23.804Z,100956.83
2018-08-11T14:11:51.979Z,100960.13
2018-08-11T14:14:20.075Z,100954.13
2018-08-11T14:16:48.197Z,100953.00
2018-08-11T14:19:16.291Z,100945.73
2018-08-11T14:21:44.340Z,100964.73
2018-08-11T14:24:12.389Z,100958.98
2018-08-11T14:26:40.480Z,100947.05
2018-08-11T14:29:08.539Z,100951.02
2018-08-11T14:31:36.959Z,100953.74
2018-08-11T14:34:05.025Z,100946.05
2018-08-11T14:36:33.092Z,100948.31
2018-08-11T14:39:02.199Z,100940.05
2018-08-11T14:41:30.244Z,100944.23
2018-08-11T14:43:58.291Z,100942.00
2018-08-11T14:46:26.381Z,100950.47
2018-08-11T14:48:54.779Z,100958.27
2018-08-11T14:51:22.844Z,100956.30
2018-08-11T14:53:50.894Z,100958.78
2018-08-11T14:56:19.111Z,100957.45
2018-08-11T14:58:47.135Z,100950.78
2018-08-11T15:01:15.212Z,100953.47
2018-08-11T15:03:43.509Z,100958.39
2018-08-11T15:06:11.777Z,100954.89
2018-08-11T15:08:39.855Z,100957.39
2018-08-11T15:11:07.975Z,100960.85
2018-08-11T15:13:36.256Z,100956.84
2018-08-11T15:16:04.384Z,100960.97
2018-08-11T15:18:32.624Z,100957.91
2018-08-11T15:21:00.725Z,100955.98
2018-08-11T15:23:28.800Z,100959.76
2018-08-11T15:25:56.868Z,100952.13
2018-08-11T15:28:25.368Z,100951.16
2018-08-11T15:30:53.481Z,100944.12
2018-08-11T15:33:21.571Z,100951.77
2018-08-11T15:35:50.023Z,100949.89
2018-08-11T15:38:18.184Z,100951.77
2018-08-11T15:40:46.302Z,100954.38
2018-08-11T15:43:14.395Z,100954.78
2018-08-11T15:45:42.462Z,100955.86
2018-08-11T15:48:10.547Z,100953.53
2018-08-11T15:50:38.603Z,100951.72
2018-08-11T15:53:06.780Z,100948.55
2018-08-11T15:55:34.838Z,100943.29
2018-08-11T15:58:02.924Z,100940.33
2018-08-11T16:00:30.978Z,100937.80
2018-08-11T16:02:59.484Z,100931.89
2018-08-11T16:05:27.611Z,100938.91
2018-08-11T16:07:55.755Z,100934.64
2018-08-11T16:10:23.815Z,100939.59
2018-08-11T16:12:51.950Z,100933.84
2018-08-11T16:15:20.071Z,100935.69
2018-08-11T16:17:48.319Z,100945.15
2018-08-11T16:20:16.392Z,100947.55
2018-08-11T16:22:44.525Z,100941.72
2018-08-11T16:25:12.595Z,100941.92
2018-08-11T16:27:40.663Z,100937.95
2018-08-11T16:30:10.111Z,100952.62
2018-08-11T16:32:38.423Z,100947.36
2018-08-11T16:35:06.539Z,100943.62
2018-08-11T16:37:35.015Z,100944.94
2018-08-11T16:40:03.404Z,100944.93
2018-08-11T16:42:31.468Z,100960.28
2018-08-11T16:44:59.586Z,100948.14
2018-08-11T16:47:27.690Z,100958.87
2018-08-11T16:49:55.831Z,100954.25
2018-08-11T16:52:23.938Z,100957.27
2018-08-11T16:54:52.195Z,100955.38
2018-08-11T16:57:20.537Z,100956.35
2018-08-11T16:59:55.488Z,100949.16
2018-08-11T17:02:23.698Z,100946.30
2018-08-11T17:04:51.807Z,100950.69
2018-08-11T17:07:20.117Z,100955.94
2018-08-11T17:09:48.279Z,100950.59
2018-08-11T17:12:16.433Z,100949.79
2018-08-11T17:14:44.520Z,100953.71
2018-08-11T17:17:12.709Z,100955.02
2018-08-11T17:19:40.748Z,100959.66
2018-08-11T17:22:08.787Z,100957.73
2018-08-11T17:24:36.847Z,100959.36
2018-08-11T17:27:04.963Z,100952.54
2018-08-11T17:29:33.109Z,100954.61
2018-08-11T17:32:01.213Z,100950.00
2018-08-11T17:34:29.258Z,100952.03
2018-08-11T17:36:57.632Z,100955.08
2018-08-11T17:39:25.759Z,100950.52
2018-08-11T17:41:53.844Z,100953.33
2018-08-11T17:44:21.937Z,100951.56
2018-08-11T17:46:50.273Z,100954.25
2018-08-11T17:49:18.397Z,100949.23
2018-08-11T17:51:46.504Z,100958.12
2018-08-11T17:54:14.804Z,100960.00
2018-08-11T17:56:42.875Z,100966.02
2018-08-11T17:59:10.929Z,100969.88
2018-08-11T18:01:39.390Z,100964.11
2018-08-11T18:04:07.492Z,100965.42
2018-08-11T18:06:35.578Z,100970.90
2018-08-11T18:09:05.913Z,100976.14
2018-08-11T18:11:33.983Z,100976.80
2018-08-11T18:14:02.148Z,100973.63
2018-08-11T18:16:30.241Z,100977.47
2018-08-11T18:18:58.341Z,100969.94
2018-08-11T18:21:26.474Z,100980.76
2018-08-11T18:23:54.561Z,100974.61
2018-08-11T18:26:22.615Z,100975.42
2018-08-11T18:28:50.694Z,100976.05
2018-08-11T18:31:18.785Z,100976.27
2018-08-11T18:33:46.862Z,100979.30
2018-08-11T18:36:14.924Z,100979.34
2018-08-11T18:38:42.985Z,100974.53
2018-08-11T18:41:11.160Z,100983.16
2018-08-11T18:43:39.213Z,100975.98
2018-08-11T18:46:07.287Z,100983.80
2018-08-11T18:48:35.401Z,100979.82
2018-08-11T18:51:03.922Z,100982.27
2018-08-11T18:53:32.662Z,100984.86
2018-08-11T18:56:00.961Z,100979.50
2018-08-11T18:58:29.612Z,100983.30
2018-08-11T19:00:58.078Z,100982.09
2018-08-11T19:03:26.261Z,100983.87
2018-08-11T19:05:54.343Z,100991.45
2018-08-11T19:08:23.229Z,100994.64
2018-08-11T19:10:51.527Z,100998.22
2018-08-11T19:13:19.630Z,101002.03
2018-08-11T19:15:48.097Z,100998.81
2018-08-11T19:18:16.365Z,101001.96
2018-08-11T19:20:44.982Z,101004.76
2018-08-11T19:23:13.047Z,101003.92
2018-08-11T19:25:41.223Z,101006.71
2018-08-11T19:28:09.331Z,101008.88
2018-08-11T19:30:37.404Z,101004.03
2018-08-11T19:33:06.356Z,101006.81
2018-08-11T19:35:34.490Z,101011.36
2018-08-11T19:38:02.675Z,101008.12
2018-08-11T19:40:30.784Z,101003.11
2018-08-11T19:42:58.975Z,101011.44
2018-08-11T19:45:27.473Z,101005.03
2018-08-11T19:47:55.641Z,101003.39
2018-08-11T19:50:23.793Z,101011.49
2018-08-11T19:52:51.998Z,101011.25
2018-08-11T19:55:20.181Z,101012.61
2018-08-11T19:57:48.286Z,101008.73
2018-08-11T20:00:16.389Z,101013.84
2018-08-11T20:02:44.471Z,101005.41
2018-08-11T20:05:12.864Z,101013.12
2018-08-11T20:07:41.487Z,101012.05
2018-08-11T20:10:09.568Z,101017.77
2018-08-11T20:12:38.260Z,101023.09
2018-08-11T20:15:08.217Z,101020.22
2018-08-11T20:17:36.303Z,101017.97
2018-08-11T20:20:05.864Z,101013.70
2018-08-11T20:22:34.361Z,101012.88
2018-08-11T20:25:02.600Z,101016.80
2018-08-11T20:27:30.801Z,101017.95
2018-08-11T20:29:59.192Z,101015.72
2018-08-11T20:32:27.257Z,101009.29
2018-08-11T20:34:55.360Z,101007.66
2018-08-11T20:37:23.857Z,101017.37
2018-08-11T20:39:52.212Z,101007.71
2018-08-11T20:42:20.452Z,101009.67
2018-08-11T20:44:48.672Z,101011.61
2018-08-11T20:47:16.964Z,101017.13
2018-08-11T20:49:45.068Z,101018.87
2018-08-11T20:52:13.124Z,101013.02
2018-08-11T20:54:41.203Z,101012.20
2018-08-11T20:57:09.747Z,101011.11
2018-08-11T20:59:37.867Z,101017.44
2018-08-11T21:02:06.192Z,101013.24
2018-08-11T21:04:34.431Z,101011.80
2018-08-11T21:07:02.538Z,101006.76
2018-08-11T21:09:30.634Z,101011.69
2018-08-11T21:11:58.711Z,101003.45
2018-08-11T21:14:26.787Z,101006.98
2018-08-11T21:16:54.878Z,101006.16
2018-08-11T21:19:23.447Z,100998.73
2018-08-11T21:21:51.553Z,101000.64
2018-08-11T21:24:19.719Z,101002.79
2018-08-11T21:26:48.048Z,100994.97
2018-08-11T21:29:16.117Z,100985.78
2018-08-11T21:31:44.206Z,100989.67
2018-08-11T21:34:12.248Z,100986.64
2018-08-11T21:36:41.263Z,100986.58
2018-08-11T21:39:12.053Z,100982.09
2018-08-11T21:41:40.228Z,100985.05
2018-08-11T21:44:08.752Z,100981.62
2018-08-11T21:46:37.409Z,100982.36
2018-08-11T21:49:05.928Z,100986.28
2018-08-11T21:51:34.049Z,100977.45
2018-08-11T21:54:02.143Z,100984.92
2018-08-11T21:56:30.316Z,100981.08
2018-08-11T21:58:58.363Z,100983.16
2018-08-11T22:01:26.485Z,100978.81
2018-08-11T22:03:54.907Z,100984.89
2018-08-11T22:06:22.976Z,100986.37
2018-08-11T22:08:51.113Z,100985.87
2018-08-11T22:11:19.219Z,100993.72
2018-08-11T22:13:47.317Z,100987.09
2018-08-11T22:16:15.425Z,100983.02
2018-08-11T22:18:43.540Z,100987.27
2018-08-11T22:21:11.638Z,100988.93
2018-08-11T22:23:39.709Z,100986.69
2018-08-11T22:26:08.163Z,100992.98
2018-08-11T22:28:36.274Z,100990.05
2018-08-11T22:31:04.325Z,100988.06
2018-08-11T22:33:32.698Z,100985.16
2018-08-11T22:36:00.865Z,100984.27
2018-08-11T22:38:29.057Z,100978.06
2018-08-11T22:40:57.150Z,100974.62
2018-08-11T22:43:25.514Z,100974.55
2018-08-11T22:45:53.618Z,100969.73
2018-08-11T22:48:21.748Z,100968.06
2018-08-11T22:50:49.871Z,100968.56
2018-08-11T22:53:17.991Z,100964.20
2018-08-11T22:55:46.084Z,100960.77
2018-08-11T22:58:14.314Z,100957.91
2018-08-11T23:00:42.424Z,100955.14
2018-08-11T23:03:10.505Z,100961.04
2018-08-11T23:05:38.601Z,100961.19
2018-08-11T23:08:06.856Z,100962.95
2018-08-11T23:10:34.924Z,100962.15
2018-08-11T23:13:03.017Z,100963.45
2018-08-11T23:15:31.110Z,100965.14
2018-08-11T23:17:59.201Z,100961.84
2018-08-11T23:20:27.308Z,100959.80
2018-08-11T23:22:55.427Z,100958.09
2018-08-11T23:25:23.487Z,100954.66
2018-08-11T23:27:51.557Z,100954.66
2018-08-11T23:30:19.644Z,100957.66
2018-08-11T23:32:47.738Z,100953.85
2018-08-11T23:35:15.837Z,100951.31
2018-08-11T23:37:43.907Z,100950.36
2018-08-11T23:40:12.407Z,100951.59
2018-08-11T23:42:40.737Z,100946.88
2018-08-11T23:45:10.875Z,100942.50
2018-08-11T23:47:39.827Z,100945.94
2018-08-11T23:50:08.562Z,100943.21
2018-08-11T23:52:36.664Z,100939.70
2018-08-11T23:55:05.545Z,100941.91
2018-08-11T23:57:33.886Z,100938.92
